Weather at Brussels South Charleroi Airport

Public forecast

Using degrees Celsius for public forecast. Weather courtesy of forecast.io.

Current aviation weather report (METAR) for Brussels South Charleroi Airport

Retrieved 2021/11/29 14:20 UTC (33 minutes ago):

EBCI 291420Z 27007KT 9999 FEW020TCU SCT023 04/01 Q1012 NOSIG

Aviation forecast (TAF) for Brussels South Charleroi Airport

Retrieved 2021/11/29 12:27 UTC (2 hours ago):

TAF EBCI 291108Z 2912/3018 27008KT 9999 SCT018 PROB30 TEMPO 2912/2917 4000 -SHSNRA BKN006 SCT012TCU BECMG 3001/3003 SCT004 BKN009 TEMPO 3003/3018 4000 RA BKN004